TimePDT,TemperatureF,Dew PointF,Humidity,Sea Level PressureIn,VisibilityMPH,Wind Direction,Wind SpeedMPH,Gust SpeedMPH,PrecipitationIn,Events,Conditions,WindDirDegrees,DateUTC
12:00 AM,41.0,26.6,57,30.23,40.0,ESE,8.1,-,N/A,,Scattered Clouds,110,2013-04-09 07:00:00
1:00 AM,37.4,24.8,60,30.25,40.0,ENE,5.8,-,N/A,,Partly Cloudy,60,2013-04-09 08:00:00
2:00 AM,37.4,26.6,65,30.26,40.0,NE,3.5,-,N/A,,Clear,50,2013-04-09 09:00:00
4:00 AM,32.0,24.8,75,30.28,40.0,East,6.9,-,N/A,,Clear,90,2013-04-09 11:00:00
5:00 AM,35,26,58,30.29,37,East,6.9,,,,,80,2013-04-09 12:00:00
5:00 AM,33.8,26.6,75,30.29,40.0,East,5.8,-,N/A,,Clear,80,2013-04-09 12:00:00
6:00 AM,33.8,26.6,75,30.30,40.0,East,9.2,-,N/A,,Scattered Clouds,100,2013-04-09 13:00:00
7:00 AM,33.8,26.6,75,30.31,40.0,ENE,5.8,-,N/A,,Scattered Clouds,60,2013-04-09 14:00:00
8:00 AM,37.4,28.4,70,30.31,40.0,East,10.4,-,N/A,,Mostly Cloudy,100,2013-04-09 15:00:00
9:00 AM,41.0,28.4,61,30.28,40.0,East,8.1,-,N/A,,Mostly Cloudy,90,2013-04-09 16:00:00
10:00 AM,46.4,30.2,53,30.25,40.0,SE,6.9,-,N/A,,Mostly Cloudy,130,2013-04-09 17:00:00
11:00 AM,52,31,33,30.22,37,ESE,3.5,,,,Scattered Clouds,120,2013-04-09 18:00:00
11:00 AM,51.8,32.0,47,30.22,40.0,SE,3.5,-,N/A,,Mostly Cloudy,130,2013-04-09 18:00:00
12:00 PM,55.4,32.0,41,30.19,40.0,East,17.3,25.3,N/A,,Mostly Cloudy,100,2013-04-09 19:00:00
1:00 PM,57.2,32.0,38,30.17,40.0,SSE,12.7,-,N/A,,Overcast,150,2013-04-09 20:00:00
2:00 PM,55.4,32.0,41,30.17,40.0,South,16.1,-,N/A,,Overcast,180,2013-04-09 21:00:00
3:00 PM,55.4,33.8,44,30.17,40.0,South,9.2,-,N/A,,Overcast,170,2013-04-09 22:00:00
4:00 PM,55.4,33.8,44,30.15,40.0,South,13.8,-,N/A,,Overcast,180,2013-04-09 23:00:00
5:00 PM,54,33,33,30.14,37,South,13.8,,,,Overcast,170,2013-04-10 00:00:00
5:00 PM,55.4,33.8,44,30.14,40.0,South,11.5,19.6,N/A,,Overcast,170,2013-04-10 00:00:00
6:00 PM,53.6,33.8,47,30.13,40.0,South,11.5,-,N/A,,Overcast,180,2013-04-10 01:00:00
7:00 PM,51.8,35.6,54,30.12,40.0,ENE,8.1,-,N/A,,Overcast,60,2013-04-10 02:00:00
8:00 PM,51.8,32.0,47,30.11,40.0,South,11.5,18.4,N/A,,Mostly Cloudy,170,2013-04-10 03:00:00
9:00 PM,50.0,32.0,50,30.10,40.0,East,10.4,-,N/A,,Mostly Cloudy,100,2013-04-10 04:00:00
10:00 PM,50.0,33.8,54,30.09,40.0,SE,5.8,-,N/A,,Mostly Cloudy,130,2013-04-10 05:00:00
11:00 PM,51,33,38,30.07,37,East,11.5,,,,Overcast,90,2013-04-10 06:00:00
11:00 PM,50.0,33.8,54,30.07,40.0,ESE,12.7,-,N/A,,Overcast,110,2013-04-10 06:00:00